Time;durP1;ratioP1;P1;durP2;ratioP2;P2;SDS_P1;SDS_P2;PMS_P1;PMS_P2;Temp;Humidity;BMP_temperature;BMP_pressure;BME280_temperature;BME280_humidity;BME280_pressure;Samples;Min_cycle;Max_cycle;Signal;HPM_P1;HPM_P2
2022/07/31 00:01:53;;;;;;;1999.90;999.90;;;20.80;99.90;;;;;;4935137;29;20207;-61
2022/07/31 00:04:23;;;;;;;1999.90;999.90;;;20.70;99.90;;;;;;4935491;29;20274;-61
2022/07/31 00:06:52;;;;;;;1999.90;999.90;;;20.70;99.90;;;;;;4935231;29;20208;-61
2022/07/31 00:09:19;;;;;;;1999.90;999.90;;;20.70;99.90;;;;;;4934997;29;20220;-61
2022/07/31 00:11:46;;;;;;;1999.90;999.90;;;20.70;99.90;;;;;;4934892;29;20693;-61
2022/07/31 00:14:13;;;;;;;1999.90;999.90;;;20.60;99.90;;;;;;4935175;29;20196;-61
2022/07/31 00:16:40;;;;;;;1999.90;999.90;;;20.60;99.90;;;;;;4934820;29;20199;-61
2022/07/31 00:19:07;;;;;;;1999.90;999.90;;;20.60;99.90;;;;;;4934754;29;20616;-61
2022/07/31 00:21:34;;;;;;;1999.90;999.90;;;20.50;99.90;;;;;;4934801;29;20693;-61
2022/07/31 00:24:03;;;;;;;1999.90;999.90;;;20.50;99.90;;;;;;4935191;29;20200;-61
2022/07/31 00:26:30;;;;;;;1999.90;999.90;;;20.50;99.90;;;;;;4935336;29;20272;-61
2022/07/31 00:28:57;;;;;;;1999.90;999.90;;;20.40;99.90;;;;;;4935162;29;20204;-61
2022/07/31 00:31:24;;;;;;;1999.90;999.90;;;20.30;99.90;;;;;;4935235;29;20216;-61
2022/07/31 00:33:51;;;;;;;1999.90;999.90;;;20.20;99.90;;;;;;4935258;29;20260;-61
2022/07/31 00:36:18;;;;;;;1999.90;999.90;;;20.10;99.90;;;;;;4935291;29;20200;-62
2022/07/31 00:38:45;;;;;;;1999.90;999.90;;;20.00;99.90;;;;;;4935148;29;20204;-62
2022/07/31 00:41:14;;;;;;;1999.90;999.90;;;19.90;99.90;;;;;;4935174;29;20209;-64
2022/07/31 00:43:41;;;;;;;1999.90;999.90;;;19.90;99.90;;;;;;4934784;29;20203;-64
2022/07/31 00:46:08;;;;;;;1999.90;999.90;;;19.90;99.90;;;;;;4935026;29;20208;-64
2022/07/31 00:48:35;;;;;;;1999.90;999.90;;;19.90;99.90;;;;;;4934798;29;20240;-64
2022/07/31 00:51:02;;;;;;;1999.90;999.90;;;19.80;99.90;;;;;;4935096;29;20196;-64
2022/07/31 00:53:29;;;;;;;1999.90;999.90;;;19.80;99.90;;;;;;4934834;29;20668;-64
2022/07/31 00:55:57;;;;;;;1999.90;999.90;;;19.80;99.90;;;;;;4934759;29;20207;-65
2022/07/31 00:58:25;;;;;;;1999.90;999.90;;;19.90;99.90;;;;;;4934778;29;20203;-64
2022/07/31 01:00:52;;;;;;;1999.90;999.90;;;20.00;99.90;;;;;;4935113;29;20199;-64
2022/07/31 01:03:19;;;;;;;1999.90;999.90;;;19.90;99.90;;;;;;4935125;29;20204;-64
2022/07/31 01:05:46;;;;;;;1999.90;999.90;;;19.90;99.90;;;;;;4934633;29;20599;-64
2022/07/31 01:08:14;;;;;;;1999.90;999.90;;;19.90;99.90;;;;;;4934992;29;20212;-64
2022/07/31 01:10:56;;;;;;;1999.90;999.90;;;20.00;99.90;;;;;;4934827;29;20213;-64
2022/07/31 01:13:35;;;;;;;1999.90;999.90;;;20.00;99.90;;;;;;4934939;29;20218;-64
2022/07/31 01:16:05;;;;;;;1999.90;999.90;;;20.10;99.90;;;;;;4937860;29;20265;-64
2022/07/31 01:18:35;;;;;;;1999.90;999.90;;;20.00;99.90;;;;;;4938135;29;20209;-64
2022/07/31 01:21:07;;;;;;;1999.90;999.90;;;20.00;99.90;;;;;;4938212;29;20662;-64
2022/07/31 01:24:10;;;;;;;1999.90;999.90;;;19.90;99.90;;;;;;4938582;29;20186;-64
2022/07/31 01:26:48;;;;;;;1999.90;999.90;;;19.90;99.90;;;;;;4913252;29;20211;-64
2022/07/31 01:29:22;;;;;;;1999.90;999.90;;;19.90;99.90;;;;;;4938246;29;20194;-64
2022/07/31 01:31:56;;;;;;;1999.90;999.90;;;19.90;99.90;;;;;;4938048;29;20211;-64
2022/07/31 01:34:27;;;;;;;1999.90;999.90;;;19.90;99.90;;;;;;4938115;29;20655;-64
2022/07/31 01:37:00;;;;;;;1999.90;999.90;;;19.90;99.90;;;;;;4938064;29;20668;-64
2022/07/31 01:39:32;;;;;;;1999.90;999.90;;;19.80;99.90;;;;;;4938284;29;20561;-64
2022/07/31 01:42:04;;;;;;;1999.90;999.90;;;19.90;99.90;;;;;;4937835;29;20185;-64
2022/07/31 01:44:40;;;;;;;1999.90;999.90;;;20.00;99.90;;;;;;4938026;29;20603;-64
2022/07/31 01:47:08;;;;;;;1999.90;999.90;;;20.10;99.90;;;;;;4937762;29;20642;-64
2022/07/31 01:49:37;;;;;;;1999.90;999.90;;;20.10;99.90;;;;;;4937706;29;20239;-64
2022/07/31 01:52:05;;;;;;;1999.90;999.90;;;20.30;99.90;;;;;;4937968;29;20323;-64
2022/07/31 01:54:34;;;;;;;1999.90;999.90;;;20.30;99.90;;;;;;4937677;29;20209;-64
2022/07/31 01:57:04;;;;;;;1999.90;999.90;;;20.30;99.90;;;;;;4937624;29;20204;-64
2022/07/31 01:59:35;;;;;;;1999.90;999.90;;;20.20;99.90;;;;;;4937565;29;20676;-64
2022/07/31 02:02:03;;;;;;;1999.90;999.90;;;20.20;99.90;;;;;;4937668;29;20242;-64
2022/07/31 02:04:32;;;;;;;1999.90;999.90;;;20.20;99.90;;;;;;4937824;29;20212;-64
2022/07/31 02:07:01;;;;;;;1999.90;999.90;;;20.20;99.90;;;;;;4937711;29;20196;-64
2022/07/31 02:09:29;;;;;;;1999.90;999.90;;;20.10;99.90;;;;;;4937361;29;20206;-64
2022/07/31 02:11:57;;;;;;;1999.90;999.90;;;20.10;99.90;;;;;;4937542;29;20220;-64
2022/07/31 02:14:25;;;;;;;1999.90;999.90;;;20.10;99.90;;;;;;4937630;29;20206;-64
2022/07/31 02:16:54;;;;;;;1999.90;999.90;;;20.00;99.90;;;;;;4937242;29;20562;-64
2022/07/31 02:19:24;;;;;;;1999.90;999.90;;;20.00;99.90;;;;;;4937268;29;20220;-64
2022/07/31 02:21:51;;;;;;;1999.90;999.90;;;19.90;99.90;;;;;;4937449;29;20214;-64
2022/07/31 02:24:18;;;;;;;1999.90;999.90;;;20.00;99.90;;;;;;4936956;29;20614;-64
2022/07/31 02:26:47;;;;;;;1999.90;999.90;;;19.90;99.90;;;;;;4936917;29;20203;-64
2022/07/31 02:29:16;;;;;;;1999.90;999.90;;;19.90;99.90;;;;;;4937402;29;20206;-64
2022/07/31 02:31:45;;;;;;;1999.90;999.90;;;19.80;99.90;;;;;;4937145;29;20200;-64
2022/07/31 02:34:14;;;;;;;1999.90;999.90;;;19.80;99.90;;;;;;4936993;29;20224;-64
2022/07/31 02:36:42;;;;;;;1999.90;999.90;;;19.80;99.90;;;;;;4937196;29;20206;-64
2022/07/31 02:39:11;;;;;;;1999.90;999.90;;;19.70;99.90;;;;;;4936850;29;20568;-64
2022/07/31 02:41:40;;;;;;;1999.90;999.90;;;19.70;99.90;;;;;;4936952;29;20204;-64
2022/07/31 02:44:08;;;;;;;1999.90;999.90;;;19.70;99.90;;;;;;4937035;29;20203;-64
2022/07/31 02:46:36;;;;;;;1999.90;999.90;;;19.60;99.90;;;;;;4936523;29;20204;-64
2022/07/31 02:49:04;;;;;;;1999.90;999.90;;;19.50;99.90;;;;;;4936084;29;20783;-64
2022/07/31 02:51:34;;;;;;;1999.90;999.90;;;19.40;99.90;;;;;;4936847;29;20203;-64
2022/07/31 02:54:01;;;;;;;1999.90;999.90;;;19.30;99.90;;;;;;4936536;29;20232;-64
2022/07/31 02:56:30;;;;;;;1999.90;999.90;;;19.30;99.90;;;;;;4936749;29;20208;-65
2022/07/31 02:58:57;;;;;;;1999.90;999.90;;;19.30;99.90;;;;;;4936482;29;20214;-64
2022/07/31 03:01:24;;;;;;;1999.90;999.90;;;19.30;99.90;;;;;;4936531;29;20594;-65
2022/07/31 03:03:51;;;;;;;1999.90;999.90;;;19.20;99.90;;;;;;4936724;29;20223;-64
2022/07/31 03:06:18;;;;;;;1999.90;999.90;;;19.20;99.90;;;;;;4936399;29;20670;-64
2022/07/31 03:08:47;;;;;;;1999.90;999.90;;;19.20;99.90;;;;;;4936566;29;20209;-64
2022/07/31 03:11:14;;;;;;;1999.90;999.90;;;19.20;99.90;;;;;;4936487;29;20200;-64
2022/07/31 03:13:43;;;;;;;1999.90;999.90;;;19.10;99.90;;;;;;4936176;29;20229;-64
2022/07/31 03:16:11;;;;;;;1999.90;999.90;;;19.10;99.90;;;;;;4936344;29;20214;-64
2022/07/31 03:18:40;;;;;;;1999.90;999.90;;;19.10;99.90;;;;;;4936380;29;20199;-64
2022/07/31 03:21:09;;;;;;;1999.90;999.90;;;19.10;99.90;;;;;;4936466;29;20199;-64
2022/07/31 03:23:36;;;;;;;1999.90;999.90;;;19.10;99.90;;;;;;4936047;29;20680;-64
2022/07/31 03:26:05;;;;;;;1999.90;999.90;;;19.00;99.90;;;;;;4936238;29;20196;-64
2022/07/31 03:28:34;;;;;;;1999.90;999.90;;;19.10;99.90;;;;;;4936265;29;20202;-64
2022/07/31 03:31:01;;;;;;;1999.90;999.90;;;19.00;99.90;;;;;;4936233;29;20222;-64
2022/07/31 03:33:29;;;;;;;1999.90;999.90;;;19.00;99.90;;;;;;4936036;29;20221;-64
2022/07/31 03:35:56;;;;;;;1999.90;999.90;;;19.00;99.90;;;;;;4935912;29;20968;-64
2022/07/31 03:38:23;;;;;;;1999.90;999.90;;;18.90;99.90;;;;;;4935536;29;20206;-64
2022/07/31 03:40:50;;;;;;;1999.90;999.90;;;18.90;99.90;;;;;;4936063;29;20202;-64
2022/07/31 03:43:20;;;;;;;1999.90;999.90;;;19.00;99.90;;;;;;4935772;29;20273;-64
2022/07/31 03:45:48;;;;;;;1999.90;999.90;;;19.00;99.90;;;;;;4935820;29;20207;-64
2022/07/31 03:48:15;;;;;;;1999.90;999.90;;;19.00;99.90;;;;;;4935500;29;20227;-64
2022/07/31 03:50:43;;;;;;;1999.90;999.90;;;19.00;99.90;;;;;;4935499;29;20221;-65
2022/07/31 03:53:12;;;;;;;1999.90;999.90;;;19.00;99.90;;;;;;4935393;29;20227;-64
2022/07/31 03:55:41;;;;;;;1999.90;999.90;;;19.10;99.90;;;;;;4935446;29;20548;-65
2022/07/31 03:58:09;;;;;;;1999.90;999.90;;;19.10;99.90;;;;;;4935494;29;20199;-64
2022/07/31 04:00:38;;;;;;;1999.90;999.90;;;19.10;99.90;;;;;;4935410;29;20208;-64
2022/07/31 04:03:08;;;;;;;1999.90;999.90;;;19.10;99.90;;;;;;4935685;29;20203;-64
2022/07/31 04:05:35;;;;;;;1999.90;999.90;;;19.20;99.90;;;;;;4935418;29;20202;-64
2022/07/31 04:08:02;;;;;;;1999.90;999.90;;;19.20;99.90;;;;;;4935688;29;20215;-64
2022/07/31 04:10:29;;;;;;;1999.90;999.90;;;19.10;99.90;;;;;;4935235;29;20203;-64
2022/07/31 04:12:56;;;;;;;1999.90;999.90;;;19.10;99.90;;;;;;4935532;29;20226;-65
2022/07/31 04:15:24;;;;;;;1999.90;999.90;;;19.10;99.90;;;;;;4935095;29;20288;-64
2022/07/31 04:17:52;;;;;;;1999.90;999.90;;;19.10;99.90;;;;;;4935428;29;20233;-64
2022/07/31 04:20:20;;;;;;;1999.90;999.90;;;19.00;99.90;;;;;;4935160;29;20202;-64
2022/07/31 04:22:47;;;;;;;1999.90;999.90;;;19.00;99.90;;;;;;4935420;29;20204;-64
2022/07/31 04:25:15;;;;;;;1999.90;999.90;;;19.00;99.90;;;;;;4935143;29;20669;-64
2022/07/31 04:27:42;;;;;;;1999.90;999.90;;;19.00;99.90;;;;;;4935392;29;20195;-64
2022/07/31 04:30:10;;;;;;;1999.90;999.90;;;19.10;99.90;;;;;;4935349;29;20274;-64
2022/07/31 04:32:37;;;;;;;1999.90;999.90;;;19.10;99.90;;;;;;4934968;29;20561;-64
2022/07/31 04:35:08;;;;;;;1999.90;999.90;;;19.10;99.90;;;;;;4935115;29;20211;-64
2022/07/31 04:37:35;;;;;;;1999.90;999.90;;;19.10;99.90;;;;;;4935073;29;20569;-64
2022/07/31 04:40:02;;;;;;;1999.90;999.90;;;19.10;99.90;;;;;;4934948;29;20221;-64
2022/07/31 04:42:29;;;;;;;1999.90;999.90;;;19.10;99.90;;;;;;4934925;29;20196;-64
2022/07/31 04:44:56;;;;;;;1999.90;999.90;;;19.10;99.90;;;;;;4935113;29;20200;-64
2022/07/31 04:47:23;;;;;;;1999.90;999.90;;;19.10;99.90;;;;;;4934720;29;20688;-64
2022/07/31 04:49:51;;;;;;;1999.90;999.90;;;19.20;99.90;;;;;;4937859;29;20239;-64
2022/07/31 04:52:19;;;;;;;1999.90;999.90;;;19.20;99.90;;;;;;4938857;29;20203;-64
2022/07/31 04:54:46;;;;;;;1999.90;999.90;;;19.20;99.90;;;;;;4938971;29;20226;-65
2022/07/31 04:57:13;;;;;;;1999.90;999.90;;;19.20;99.90;;;;;;4938713;29;20203;-64
2022/07/31 04:59:40;;;;;;;1999.90;999.90;;;19.20;99.90;;;;;;4938715;29;20665;-64
2022/07/31 05:02:08;;;;;;;1999.90;999.90;;;19.20;99.90;;;;;;4938877;29;20209;-65
2022/07/31 05:04:35;;;;;;;1999.90;999.90;;;19.20;99.90;;;;;;4938808;29;20198;-64
2022/07/31 05:07:02;;;;;;;1999.90;999.90;;;19.20;99.90;;;;;;4938731;29;20212;-64
2022/07/31 05:09:32;;;;;;;1999.90;999.90;;;19.20;99.90;;;;;;4938714;29;20208;-64
2022/07/31 05:11:59;;;;;;;1999.90;999.90;;;19.20;99.90;;;;;;4938732;29;20195;-64
2022/07/31 05:14:26;;;;;;;1999.90;999.90;;;19.30;99.90;;;;;;4938477;29;20216;-64
2022/07/31 05:16:53;;;;;;;1999.90;999.90;;;19.30;99.90;;;;;;4938308;29;20547;-64
2022/07/31 05:19:20;;;;;;;1999.90;999.90;;;19.30;99.90;;;;;;4938668;29;20195;-64
2022/07/31 05:21:47;;;;;;;1999.90;999.90;;;19.30;99.90;;;;;;4938285;29;20208;-64
2022/07/31 05:24:14;;;;;;;1999.90;999.90;;;19.40;99.90;;;;;;4938550;29;20206;-64
2022/07/31 05:26:43;;;;;;;1999.90;999.90;;;19.50;99.90;;;;;;4938509;29;20222;-64
2022/07/31 05:29:11;;;;;;;1999.90;999.90;;;19.50;99.90;;;;;;4938141;29;20204;-64
2022/07/31 05:31:38;;;;;;;1999.90;999.90;;;19.60;99.90;;;;;;4938323;29;20195;-64
2022/07/31 05:34:05;;;;;;;1999.90;999.90;;;19.60;99.90;;;;;;4937846;29;20579;-64
2022/07/31 05:36:32;;;;;;;1999.90;999.90;;;19.50;99.90;;;;;;4937868;29;20609;-64
2022/07/31 05:38:59;;;;;;;1999.90;999.90;;;19.50;99.90;;;;;;4938248;29;20258;-64
2022/07/31 05:41:28;;;;;;;1999.90;999.90;;;19.40;99.90;;;;;;4938128;29;20206;-64
2022/07/31 05:43:57;;;;;;;1999.90;999.90;;;19.40;99.90;;;;;;4937224;29;20200;-64
2022/07/31 05:46:24;;;;;;;1999.90;999.90;;;19.40;99.90;;;;;;4937631;29;20218;-64
2022/07/31 05:48:51;;;;;;;1999.90;999.90;;;19.40;99.90;;;;;;4936817;29;20606;-64
2022/07/31 05:51:18;;;;;;;1999.90;999.90;;;19.40;99.90;;;;;;4937203;29;20566;-64
2022/07/31 05:53:45;;;;;;;1999.90;999.90;;;19.40;99.90;;;;;;4937055;29;20220;-65
2022/07/31 05:56:12;;;;;;;1999.90;999.90;;;19.40;99.90;;;;;;4936876;29;20655;-65
2022/07/31 05:58:39;;;;;;;1999.90;999.90;;;19.40;99.90;;;;;;4937912;29;20203;-64
2022/07/31 06:01:08;;;;;;;1999.90;999.90;;;19.30;99.90;;;;;;4936970;29;20669;-65
2022/07/31 06:03:35;;;;;;;1999.90;999.90;;;19.30;99.90;;;;;;4937784;29;20198;-65
2022/07/31 06:06:04;;;;;;;1999.90;999.90;;;19.30;99.90;;;;;;4937752;29;20207;-65
2022/07/31 06:08:32;;;;;;;1999.90;999.90;;;19.20;99.90;;;;;;4937713;29;20207;-65
2022/07/31 06:10:59;;;;;;;1999.90;999.90;;;19.20;99.90;;;;;;4937724;29;20207;-66
2022/07/31 06:13:29;;;;;;;1999.90;999.90;;;19.20;99.90;;;;;;4937586;29;20224;-65
2022/07/31 06:15:56;;;;;;;1999.90;999.90;;;19.20;99.90;;;;;;4937122;29;20586;-65
2022/07/31 06:18:24;;;;;;;1999.90;999.90;;;19.20;99.90;;;;;;4937393;29;20199;-65
2022/07/31 06:20:52;;;;;;;1999.90;999.90;;;19.20;99.90;;;;;;4937629;29;20210;-65
2022/07/31 06:23:19;;;;;;;1999.90;999.90;;;19.20;99.90;;;;;;4937268;29;20533;-64
2022/07/31 06:25:46;;;;;;;1999.90;999.90;;;19.20;99.90;;;;;;4937461;29;20206;-65
2022/07/31 06:28:13;;;;;;;1999.90;999.90;;;19.20;99.90;;;;;;4936381;29;20206;-65
2022/07/31 06:30:41;;;;;;;1999.90;999.90;;;19.20;99.90;;;;;;4937387;29;20280;-64
2022/07/31 06:33:08;;;;;;;1999.90;999.90;;;19.20;99.90;;;;;;4937023;29;20208;-65
2022/07/31 06:35:36;;;;;;;1999.90;999.90;;;19.20;99.90;;;;;;4936964;29;20204;-65
2022/07/31 06:38:03;;;;;;;1999.90;999.90;;;19.40;99.90;;;;;;4936742;29;20206;-65
2022/07/31 06:40:30;;;;;;;1999.90;999.90;;;19.40;99.90;;;;;;4937201;29;20204;-66
2022/07/31 06:42:58;;;;;;;1999.90;999.90;;;19.50;99.90;;;;;;4937125;29;20205;-64
2022/07/31 06:45:25;;;;;;;1999.90;999.90;;;19.50;99.90;;;;;;4936887;29;20206;-65
2022/07/31 06:47:52;;;;;;;1999.90;999.90;;;19.50;99.90;;;;;;4936530;29;20282;-64
2022/07/31 06:50:19;;;;;;;1999.90;999.90;;;19.50;99.90;;;;;;4936780;29;20195;-66
2022/07/31 06:52:47;;;;;;;1999.90;999.90;;;19.50;99.90;;;;;;4936666;29;20204;-64
2022/07/31 06:55:14;;;;;;;1999.90;999.90;;;19.60;99.90;;;;;;4936781;29;20219;-64
2022/07/31 06:57:41;;;;;;;1999.90;999.90;;;19.70;99.90;;;;;;4936470;29;20695;-65
2022/07/31 07:00:10;;;;;;;1999.90;999.90;;;19.70;99.90;;;;;;4936523;29;20735;-65
2022/07/31 07:02:37;;;;;;;1999.90;999.90;;;19.70;99.90;;;;;;4936438;29;20203;-65
2022/07/31 07:05:05;;;;;;;1999.90;999.90;;;19.70;99.90;;;;;;4936412;29;20199;-65
2022/07/31 07:07:35;;;;;;;1999.90;999.90;;;19.70;99.90;;;;;;4936311;29;20730;-66
2022/07/31 07:10:05;;;;;;;1999.90;999.90;;;19.70;99.90;;;;;;4936391;29;20199;-66
2022/07/31 07:12:32;;;;;;;1999.90;999.90;;;19.80;99.90;;;;;;4935345;29;20212;-66
2022/07/31 07:14:59;;;;;;;1999.90;999.90;;;19.80;99.90;;;;;;4935965;29;20225;-64
2022/07/31 07:17:27;;;;;;;1999.90;999.90;;;19.80;99.90;;;;;;4935834;29;20207;-66
2022/07/31 07:19:54;;;;;;;1999.90;999.90;;;19.90;99.90;;;;;;4935762;29;20209;-65
2022/07/31 07:22:21;;;;;;;1999.90;999.90;;;20.00;99.90;;;;;;4935812;29;20919;-65
2022/07/31 07:24:48;;;;;;;1999.90;999.90;;;20.10;99.90;;;;;;4935962;29;20248;-66
2022/07/31 07:27:16;;;;;;;1999.90;999.90;;;20.10;99.90;;;;;;4935605;29;20691;-66
2022/07/31 07:29:43;;;;;;;1999.90;999.90;;;20.20;99.90;;;;;;4935631;29;20216;-65
2022/07/31 07:32:12;;;;;;;1999.90;999.90;;;20.20;99.90;;;;;;4935789;29;20196;-65
2022/07/31 07:34:39;;;;;;;1999.90;999.90;;;20.20;99.90;;;;;;4935528;29;20604;-65
2022/07/31 07:37:06;;;;;;;1999.90;999.90;;;20.10;99.90;;;;;;4935462;29;20198;-66
2022/07/31 07:39:33;;;;;;;1999.90;999.90;;;20.10;99.90;;;;;;4935673;29;20218;-67
2022/07/31 07:42:00;;;;;;;1999.90;999.90;;;20.00;99.90;;;;;;4935066;29;20197;-65
2022/07/31 07:44:29;;;;;;;1999.90;999.90;;;20.10;99.90;;;;;;4935137;29;20218;-65
2022/07/31 07:46:56;;;;;;;1999.90;999.90;;;20.30;99.90;;;;;;4934984;29;20207;-65
2022/07/31 07:49:23;;;;;;;1999.90;999.90;;;20.40;99.90;;;;;;4934184;29;20671;-65
2022/07/31 07:51:50;;;;;;;1999.90;999.90;;;20.50;99.90;;;;;;4933573;29;20220;-65
2022/07/31 07:54:17;;;;;;;1999.90;999.90;;;21.00;99.90;;;;;;4933688;29;20765;-67
2022/07/31 07:56:44;;;;;;;1999.90;999.90;;;21.70;99.90;;;;;;4934135;29;20207;-67
2022/07/31 07:59:12;;;;;;;1999.90;999.90;;;22.40;99.90;;;;;;4934393;29;20195;-65
2022/07/31 08:01:40;;;;;;;1999.90;999.90;;;22.40;99.90;;;;;;4933997;29;20214;-65
2022/07/31 08:04:07;;;;;;;1999.90;999.90;;;22.20;99.90;;;;;;4933910;29;20673;-63
2022/07/31 08:06:34;;;;;;;1999.90;999.90;;;21.80;99.90;;;;;;4933843;29;20206;-63
2022/07/31 08:09:01;;;;;;;1999.90;999.90;;;21.80;99.90;;;;;;4934358;29;20196;-63
2022/07/31 08:11:28;;;;;;;1999.90;999.90;;;22.10;99.90;;;;;;4934297;29;20266;-63
2022/07/31 08:13:55;;;;;;;1999.90;999.90;;;22.10;99.90;;;;;;4933555;29;20199;-64
2022/07/31 08:16:22;;;;;;;1999.90;999.90;;;22.20;99.90;;;;;;4933941;29;20209;-63
2022/07/31 08:18:53;;;;;;;1999.90;999.90;;;22.40;99.90;;;;;;4934116;29;20333;-63
2022/07/31 08:21:20;;;;;;;1999.90;999.90;;;22.40;99.90;;;;;;4933792;29;20191;-63
2022/07/31 08:23:47;;;;;;;1999.90;999.90;;;22.40;99.90;;;;;;4933098;29;20250;-63
2022/07/31 08:26:16;;;;;;;1999.90;999.90;;;22.30;99.90;;;;;;4933721;29;20195;-64
2022/07/31 08:28:44;;;;;;;1999.90;999.90;;;22.30;99.90;;;;;;4934088;29;20315;-63
2022/07/31 08:31:11;;;;;;;1999.90;999.90;;;22.50;99.90;;;;;;4933982;29;20262;-63
2022/07/31 08:33:38;;;;;;;1999.90;999.90;;;22.60;99.90;;;;;;4934031;29;20196;-63
2022/07/31 08:36:08;;;;;;;1999.90;999.90;;;22.70;99.90;;;;;;4933675;29;20224;-63
2022/07/31 08:38:35;;;;;;;1999.90;999.90;;;22.60;99.90;;;;;;4933828;29;20203;-63
2022/07/31 08:41:02;;;;;;;1999.90;999.90;;;22.50;99.90;;;;;;4934081;29;20195;-63
2022/07/31 08:43:30;;;;;;;1999.90;999.90;;;22.30;99.90;;;;;;4933985;29;20211;-63
2022/07/31 08:46:01;;;;;;;1999.90;999.90;;;22.10;99.90;;;;;;4933621;29;20243;-63
2022/07/31 08:48:32;;;;;;;1999.90;999.90;;;22.10;99.90;;;;;;4933575;29;20250;-64
2022/07/31 08:51:03;;;;;;;1999.90;999.90;;;22.50;99.90;;;;;;4933400;29;20210;-64
2022/07/31 08:53:36;;;;;;;1999.90;999.90;;;22.70;99.90;;;;;;4932573;29;20190;-63
2022/07/31 08:56:05;;;;;;;1999.90;999.90;;;22.70;99.90;;;;;;4933238;29;20221;-64
2022/07/31 08:58:32;;;;;;;1999.90;999.90;;;22.70;99.90;;;;;;4933707;29;20204;-64
2022/07/31 09:00:59;;;;;;;1999.90;999.90;;;23.10;99.90;;;;;;4933540;29;20571;-64
2022/07/31 09:03:27;;;;;;;1999.90;999.90;;;24.00;99.90;;;;;;4933549;29;20203;-63
2022/07/31 09:05:54;;;;;;;1999.90;999.90;;;24.40;99.90;;;;;;4933332;29;20570;-64
2022/07/31 09:08:22;;;;;;;1999.90;999.90;;;25.40;99.90;;;;;;4933742;29;20198;-64
2022/07/31 09:11:02;;;;;;;1999.90;999.90;;;25.10;99.90;;;;;;4933427;29;20207;-64
2022/07/31 09:13:29;;;;;;;1999.90;999.90;;;25.40;99.90;;;;;;4933505;29;20202;-64
2022/07/31 09:15:58;;;;;;;1999.90;999.90;;;24.90;99.90;;;;;;4933340;29;20219;-64
2022/07/31 09:18:25;;;;;;;1999.90;999.90;;;24.20;99.90;;;;;;4933480;29;20212;-64
2022/07/31 09:20:56;;;;;;;1999.90;999.90;;;23.90;99.90;;;;;;4933679;29;20206;-63
2022/07/31 09:23:24;;;;;;;1999.90;999.90;;;24.00;99.90;;;;;;4933379;29;20360;-64
2022/07/31 09:25:54;;;;;;;1999.90;999.90;;;24.00;99.90;;;;;;4933530;29;20196;-64
2022/07/31 09:28:30;;;;;;;1999.90;999.90;;;24.10;99.90;;;;;;4933490;29;20552;-64
2022/07/31 09:30:57;;;;;;;1999.90;999.90;;;24.00;99.90;;;;;;4933617;29;20183;-64
2022/07/31 09:33:28;;;;;;;1999.90;999.90;;;23.90;99.90;;;;;;4933211;29;20665;-64
2022/07/31 09:35:55;;;;;;;1999.90;999.90;;;24.00;99.90;;;;;;4934958;29;20200;-64
2022/07/31 09:38:30;;;;;;;1999.90;999.90;;;24.10;99.90;;;;;;4936661;29;20212;-64
2022/07/31 09:41:08;;;;;;;1999.90;999.90;;;24.50;99.90;;;;;;4937093;29;20210;-64
2022/07/31 09:43:35;;;;;;;1999.90;999.90;;;24.40;99.90;;;;;;4936623;29;20238;-64
2022/07/31 09:46:03;;;;;;;1999.90;999.90;;;24.20;99.90;;;;;;4936721;29;20202;-64
2022/07/31 09:48:31;;;;;;;1999.90;999.90;;;24.20;99.90;;;;;;4936511;29;20239;-65
2022/07/31 09:50:59;;;;;;;1999.90;999.90;;;24.40;99.90;;;;;;4936730;29;20214;-64
2022/07/31 09:53:27;;;;;;;1999.90;999.90;;;24.20;99.90;;;;;;4936355;29;20203;-64
2022/07/31 09:55:56;;;;;;;1999.90;999.90;;;24.30;99.90;;;;;;4936231;29;20219;-64
2022/07/31 09:58:25;;;;;;;1999.90;999.90;;;24.30;99.90;;;;;;4936360;29;20212;-65
2022/07/31 10:00:55;;;;;;;1999.90;999.90;;;24.60;92.40;;;;;;4936302;29;20200;-64
2022/07/31 10:03:24;;;;;;;1999.90;999.90;;;24.70;90.90;;;;;;4936525;29;20204;-64
2022/07/31 10:05:54;;;;;;;1999.90;999.90;;;24.80;1.00;;;;;;4936453;29;20199;-64
2022/07/31 10:08:23;;;;;;;1999.90;999.90;;;24.90;1.00;;;;;;4936184;29;20251;-64
2022/07/31 10:10:50;;;;;;;1999.90;999.90;;;24.90;1.00;;;;;;4936094;29;20703;-65
2022/07/31 10:13:20;;;;;;;1999.90;999.90;;;24.80;1.00;;;;;;4936140;29;20575;-65
2022/07/31 10:15:51;;;;;;;1999.90;999.90;;;25.00;99.90;;;;;;4936091;29;20220;-65
2022/07/31 10:18:19;;;;;;;1999.90;999.90;;;25.20;99.90;;;;;;4936295;29;20242;-64
2022/07/31 10:20:52;;;;;;;1999.90;999.90;;;25.30;99.90;;;;;;4936264;29;20204;-64
2022/07/31 10:23:22;;;;;;;1999.90;999.90;;;25.20;1.00;;;;;;4935881;29;20191;-64
2022/07/31 10:25:52;;;;;;;1999.90;999.90;;;24.90;99.90;;;;;;4936194;29;20190;-65
2022/07/31 10:28:20;;;;;;;1999.90;999.90;;;24.90;1.00;;;;;;4935787;29;20709;-65
2022/07/31 10:30:49;;;;;;;1999.90;999.90;;;25.40;99.90;;;;;;4935863;29;20274;-65
2022/07/31 10:33:17;;;;;;;1999.90;999.90;;;25.50;99.90;;;;;;4935996;29;20196;-64
2022/07/31 10:35:51;;;;;;;1999.90;999.90;;;25.40;92.80;;;;;;4935657;29;20224;-64
2022/07/31 10:38:23;;;;;;;1999.90;999.90;;;25.60;1.00;;;;;;4936016;29;20246;-65
2022/07/31 10:40:58;;;;;;;1999.90;999.90;;;25.40;1.00;;;;;;4935669;29;20184;-65
2022/07/31 10:43:29;;;;;;;1999.90;999.90;;;25.40;1.00;;;;;;4935838;29;20191;-65
2022/07/31 10:45:58;;;;;;;1999.90;999.90;;;25.60;99.90;;;;;;4935337;29;20548;-65
2022/07/31 10:48:25;;;;;;;1999.90;999.90;;;25.20;99.90;;;;;;4935451;29;20243;-65
2022/07/31 10:51:02;;;;;;;1999.90;999.90;;;25.20;1.00;;;;;;4935420;29;20204;-65
2022/07/31 10:53:29;;;;;;;1999.90;999.90;;;24.90;99.90;;;;;;4935338;29;20190;-66
2022/07/31 10:56:01;;;;;;;1999.90;999.90;;;24.80;1.00;;;;;;4935278;29;20223;-65
2022/07/31 10:58:29;;;;;;;1999.90;999.90;;;24.90;99.90;;;;;;4935193;29;20200;-65
2022/07/31 11:01:06;;;;;;;1999.90;999.90;;;25.40;1.00;;;;;;4935204;29;20211;-65
2022/07/31 11:03:43;;;;;;;1999.90;999.90;;;26.00;48.40;;;;;;4935153;29;20191;-65
2022/07/31 11:06:10;;;;;;;1999.90;999.90;;;26.10;1.00;;;;;;4935139;29;20194;-65
2022/07/31 11:08:44;;;;;;;1999.90;999.90;;;26.10;99.90;;;;;;4935061;29;20795;-66
2022/07/31 11:11:12;;;;;;;1999.90;999.90;;;25.90;99.90;;;;;;4935244;29;20203;-67
2022/07/31 11:13:47;;;;;;;1999.90;999.90;;;26.20;23.80;;;;;;4935266;29;20210;-66
2022/07/31 11:16:15;;;;;;;1999.90;999.90;;;25.70;99.90;;;;;;4934752;29;20219;-66
2022/07/31 11:18:45;;;;;;;1999.90;999.90;;;26.00;99.90;;;;;;4935030;29;20203;-65
2022/07/31 11:21:12;;;;;;;1999.90;999.90;;;26.00;1.00;;;;;;4935075;29;20208;-66
2022/07/31 11:23:40;;;;;;;1999.90;999.90;;;25.90;1.00;;;;;;4934975;29;20198;-67
2022/07/31 11:26:08;;;;;;;1999.90;999.90;;;25.70;99.90;;;;;;4934782;29;20200;-67
2022/07/31 11:28:35;;;;;;;1999.90;999.90;;;25.60;38.80;;;;;;4934656;29;20199;-65
2022/07/31 11:31:04;;;;;;;1999.90;999.90;;;25.40;92.60;;;;;;4934909;29;20196;-66
2022/07/31 11:33:36;;;;;;;1999.90;999.90;;;25.60;88.40;;;;;;4934876;29;20266;-66
2022/07/31 11:36:09;;;;;;;1999.90;999.90;;;25.80;43.30;;;;;;4934914;29;20207;-67
2022/07/31 11:38:36;;;;;;;1999.90;999.90;;;26.00;1.00;;;;;;4934830;29;20203;-66
2022/07/31 11:41:04;;;;;;;1999.90;999.90;;;25.80;1.00;;;;;;4934516;29;20613;-64
2022/07/31 11:43:33;;;;;;;1999.90;999.90;;;25.50;1.00;;;;;;4934676;29;20203;-65
2022/07/31 11:46:01;;;;;;;1999.90;999.90;;;25.60;99.90;;;;;;4934249;29;20678;-65
2022/07/31 11:48:30;;;;;;;1999.90;999.90;;;25.50;1.00;;;;;;4934117;29;20631;-65
2022/07/31 11:51:00;;;;;;;1999.90;999.90;;;25.40;1.00;;;;;;4934725;29;20224;-66
2022/07/31 11:53:27;;;;;;;1999.90;999.90;;;25.40;99.90;;;;;;4934214;29;20589;-66
2022/07/31 11:55:56;;;;;;;1999.90;999.90;;;25.40;1.00;;;;;;4934249;29;20566;-66
2022/07/31 11:58:26;;;;;;;1999.90;999.90;;;25.70;99.90;;;;;;4933731;29;20731;-65
2022/07/31 12:00:55;;;;;;;1999.90;999.90;;;26.00;1.00;;;;;;4934427;29;20191;-66
2022/07/31 12:03:25;;;;;;;1999.90;999.90;;;26.30;99.90;;;;;;4934369;29;20207;-66
2022/07/31 12:05:53;;;;;;;1999.90;999.90;;;26.00;99.90;;;;;;4934186;29;20179;-65